Terminal Aerodrome Forecast
Issued by NWS

Home | Current Version | Previous Version | Text Only | Print | Product List | Glossary On
Versions: 1 2 3 4 5 6 7 8 9 10 11 12 13 14 15 16 17 18 19 20 21 22 23 24 25 26
000
FTUS45 KFGZ 020000 AAA
TAFGCN
TAF AMD
KGCN 020010Z 0200/0224 06005KT 1SM -SN BR OVC015
      TEMPO 0200/0202 1/4SM SN FG OVC008
     FM020200 20010KT 4SM -RASN OVC010
     FM021200 20010G18KT 1/2SM SN FG OVC008=

USA.gov is the U.S. government's official web portal to all federal, state and local government web resources and services.